Time;durP1;ratioP1;P1;durP2;ratioP2;P2;SDS_P1;SDS_P2;PMS_P1;PMS_P2;Temp;Humidity;BMP_temperature;BMP_pressure;BME280_temperature;BME280_humidity;BME280_pressure;Samples;Min_cycle;Max_cycle;Signal;HPM_P1;HPM_P2
2023/08/20 00:01:17;;;;;;;18.02;11.43;;;;;23.10;96767.00;;;;8266705;28;20213;-63
2023/08/20 00:05:23;;;;;;;16.85;11.05;;;;;23.10;96778.00;;;;8268211;28;20246;-63
2023/08/20 00:09:27;;;;;;;16.60;10.68;;;;;23.10;96777.00;;;;8268776;28;20198;-63
2023/08/20 00:13:30;;;;;;;15.30;10.10;;;;;23.00;96766.00;;;;8256069;28;20301;-63
2023/08/20 00:17:38;;;;;;;18.52;10.27;;;;;23.00;96764.00;;;;8249520;28;20207;-63
2023/08/20 00:21:44;;;;;;;18.05;10.45;;;;;23.00;96754.00;;;;8256145;28;20286;-63
2023/08/20 00:25:47;;;;;;;16.30;10.43;;;;;23.00;96749.00;;;;8255872;28;20560;-63
2023/08/20 00:29:51;;;;;;;17.08;10.30;;;;;23.00;96746.00;;;;8263957;28;20228;-63
2023/08/20 00:33:55;;;;;;;14.68;10.23;;;;;23.00;96736.00;;;;8262254;28;20240;-63
2023/08/20 00:38:11;;;;;;;13.93;10.35;;;;;22.90;96735.00;;;;8262016;28;20645;-63
2023/08/20 00:42:16;;;;;;;13.13;10.10;;;;;22.80;96726.00;;;;8258927;28;20689;-63
2023/08/20 00:46:19;;;;;;;14.82;9.80;;;;;22.80;96729.00;;;;8262164;28;20191;-63
2023/08/20 00:50:23;;;;;;;11.57;9.10;;;;;22.80;96730.00;;;;8266703;28;20286;-63
2023/08/20 00:54:29;;;;;;;16.08;9.73;;;;;22.80;96743.00;;;;8258560;28;20285;-63
2023/08/20 00:58:35;;;;;;;16.42;10.23;;;;;22.80;96744.00;;;;8272773;28;20199;-63
2023/08/20 01:02:39;;;;;;;14.18;9.38;;;;;22.90;96744.00;;;;8258946;28;20282;-63
2023/08/20 01:06:50;;;;;;;12.85;9.50;;;;;22.90;96742.00;;;;8253014;28;20206;-62
2023/08/20 01:11:01;;;;;;;17.85;9.68;;;;;22.90;96749.00;;;;8262430;28;20227;-63
2023/08/20 01:15:13;;;;;;;12.85;9.57;;;;;22.90;96752.00;;;;8262404;28;20213;-63
2023/08/20 01:19:21;;;;;;;13.15;10.45;;;;;22.90;96747.00;;;;8263086;28;20607;-63
2023/08/20 01:23:52;;;;;;;15.80;10.65;;;;;22.90;96755.00;;;;8255891;28;20658;-63
2023/08/20 01:28:09;;;;;;;13.50;10.07;;;;;22.90;96755.00;;;;8265048;28;20275;-62
2023/08/20 01:32:14;;;;;;;14.48;9.55;;;;;22.90;96754.00;;;;8260368;28;20766;-63
2023/08/20 01:36:20;;;;;;;12.15;9.25;;;;;23.00;96759.00;;;;8261553;28;20214;-63
2023/08/20 01:40:24;;;;;;;16.38;9.75;;;;;22.90;96762.00;;;;8260933;28;20260;-63
2023/08/20 01:44:27;;;;;;;16.05;9.95;;;;;22.90;96761.00;;;;8276160;28;20294;-63
2023/08/20 01:48:34;;;;;;;12.05;9.50;;;;;22.90;96770.00;;;;8263762;28;20587;-63
2023/08/20 01:52:40;;;;;;;12.07;9.77;;;;;22.90;96774.00;;;;8264950;28;20272;-63
2023/08/20 01:56:43;;;;;;;12.45;10.10;;;;;22.90;96774.00;;;;8253917;28;20195;-62
2023/08/20 02:00:48;;;;;;;9.65;8.60;;;;;22.90;96771.00;;;;8263873;28;20209;-62
2023/08/20 02:04:53;;;;;;;15.40;9.27;;;;;22.80;96776.00;;;;8263553;28;20237;-62
2023/08/20 02:08:57;;;;;;;14.15;9.77;;;;;22.80;96785.00;;;;8267504;28;20206;-63
2023/08/20 02:13:02;;;;;;;14.15;9.93;;;;;22.80;96776.00;;;;8273040;28;20239;-64
2023/08/20 02:17:05;;;;;;;11.95;9.30;;;;;22.80;96774.00;;;;8256242;28;20206;-63
2023/08/20 02:21:10;;;;;;;12.18;9.57;;;;;22.70;96775.00;;;;8255479;28;20238;-63
2023/08/20 02:25:13;;;;;;;10.50;9.38;;;;;22.70;96784.00;;;;8276371;28;20207;-62
2023/08/20 02:29:16;;;;;;;12.73;9.75;;;;;22.60;96786.00;;;;8269966;28;20225;-63
2023/08/20 02:33:19;;;;;;;14.45;9.93;;;;;22.60;96788.00;;;;8272185;28;20264;-61
2023/08/20 02:37:24;;;;;;;15.18;9.38;;;;;22.50;96795.00;;;;8255009;28;20692;-62
2023/08/20 02:41:27;;;;;;;12.27;8.80;;;;;22.50;96794.00;;;;8259273;28;20836;-63
2023/08/20 02:45:32;;;;;;;11.27;9.10;;;;;22.40;96801.00;;;;8260086;28;20604;-63
2023/08/20 02:49:36;;;;;;;11.27;9.30;;;;;22.40;96802.00;;;;8257588;28;20269;-63
2023/08/20 02:53:41;;;;;;;16.48;8.85;;;;;22.40;96811.00;;;;8276786;28;20321;-63
2023/08/20 02:57:44;;;;;;;17.30;9.38;;;;;22.40;96812.00;;;;8260647;28;20206;-63
2023/08/20 03:01:50;;;;;;;13.52;9.07;;;;;22.40;96810.00;;;;8305773;22;20225;-63
2023/08/20 03:05:54;;;;;;;14.48;9.88;;;;;22.30;96814.00;;;;8350451;28;20205;-63
2023/08/20 03:10:06;;;;;;;12.27;9.23;;;;;22.30;96812.00;;;;8369506;28;20196;-63
2023/08/20 03:14:09;;;;;;;13.60;9.27;;;;;22.20;96814.00;;;;8371036;28;20267;-63
2023/08/20 03:18:13;;;;;;;16.83;10.07;;;;;22.20;96814.00;;;;8364055;28;20718;-63
2023/08/20 03:22:17;;;;;;;12.07;9.57;;;;;22.20;96805.00;;;;8368181;28;20232;-63
2023/08/20 03:26:22;;;;;;;13.18;10.60;;;;;22.10;96803.00;;;;8353322;28;20220;-63
2023/08/20 03:30:25;;;;;;;10.95;9.30;;;;;22.00;96805.00;;;;8360752;28;20567;-62
2023/08/20 03:34:31;;;;;;;14.20;9.73;;;;;22.00;96804.00;;;;8367257;28;20230;-62
2023/08/20 03:38:37;;;;;;;18.10;10.98;;;;;21.90;96807.00;;;;8345661;28;20193;-62
2023/08/20 03:42:41;;;;;;;16.35;10.50;;;;;21.80;96804.00;;;;8364190;28;20498;-62
2023/08/20 03:46:45;;;;;;;13.57;10.30;;;;;21.60;96800.00;;;;8360164;28;20195;-62
2023/08/20 03:50:50;;;;;;;12.80;10.18;;;;;21.50;96800.00;;;;8351078;28;20960;-62
2023/08/20 03:54:54;;;;;;;14.90;11.18;;;;;21.40;96797.00;;;;8353682;28;20980;-61
2023/08/20 03:59:03;;;;;;;15.38;10.90;;;;;21.30;96796.00;;;;8351335;28;20287;-62
2023/08/20 04:03:07;;;;;;;15.75;11.48;;;;;21.20;96791.00;;;;8364710;28;20246;-62
2023/08/20 04:07:10;;;;;;;19.58;11.07;;;;;21.10;96789.00;;;;8366237;28;20639;-62
2023/08/20 04:11:13;;;;;;;15.98;11.27;;;;;21.00;96799.00;;;;8371590;28;20287;-62
2023/08/20 04:15:20;;;;;;;16.25;10.90;;;;;20.90;96794.00;;;;8376441;28;20223;-62
2023/08/20 04:19:23;;;;;;;16.00;11.95;;;;;20.90;96799.00;;;;8376500;28;20199;-61
2023/08/20 04:23:26;;;;;;;15.35;11.18;;;;;20.80;96807.00;;;;8380337;28;20230;-63
2023/08/20 04:27:29;;;;;;;15.68;11.82;;;;;20.90;96813.00;;;;8372646;28;20283;-62
2023/08/20 04:31:36;;;;;;;15.40;11.02;;;;;21.00;96803.00;;;;8370063;28;20213;-63
2023/08/20 04:35:40;;;;;;;16.58;10.38;;;;;21.00;96813.00;;;;8378015;28;20945;-62
2023/08/20 04:39:43;;;;;;;13.73;9.98;;;;;21.10;96807.00;;;;8381485;28;20584;-62
2023/08/20 04:43:46;;;;;;;14.32;10.63;;;;;21.20;96805.00;;;;8362252;28;20239;-62
2023/08/20 04:47:53;;;;;;;20.02;10.68;;;;;21.20;96810.00;;;;8372774;28;20311;-62
2023/08/20 04:51:57;;;;;;;13.60;10.68;;;;;21.30;96817.00;;;;8364836;28;20199;-62
2023/08/20 04:56:01;;;;;;;12.07;10.00;;;;;21.30;96816.00;;;;8372020;28;20224;-62
2023/08/20 05:00:06;;;;;;;12.10;10.27;;;;;21.40;96818.00;;;;8372842;28;20212;-62
2023/08/20 05:04:11;;;;;;;12.45;10.43;;;;;21.40;96818.00;;;;8363492;28;20338;-62
2023/08/20 05:08:15;;;;;;;15.05;11.10;;;;;21.50;96827.00;;;;8368597;28;20243;-62
2023/08/20 05:12:20;;;;;;;11.15;9.45;;;;;21.60;96822.00;;;;8365953;28;20311;-62
2023/08/20 05:16:25;;;;;;;15.07;10.35;;;;;21.70;96825.00;;;;8375439;28;20295;-61
2023/08/20 05:20:30;;;;;;;15.10;10.80;;;;;21.80;96830.00;;;;8367972;28;20192;-62
2023/08/20 05:24:33;;;;;;;14.50;10.15;;;;;21.90;96829.00;;;;8370736;28;20306;-63
2023/08/20 05:28:36;;;;;;;15.35;11.45;;;;;22.00;96840.00;;;;8369631;28;20238;-62
2023/08/20 05:32:39;;;;;;;13.35;10.48;;;;;22.10;96841.00;;;;8373084;28;20227;-62
2023/08/20 05:36:50;;;;;;;12.35;10.10;;;;;22.30;96840.00;;;;8370724;28;20485;-62
2023/08/20 05:40:53;;;;;;;16.38;10.95;;;;;22.50;96846.00;;;;8373609;28;20254;-61
2023/08/20 05:44:59;;;;;;;24.65;10.75;;;;;22.70;96848.00;;;;8371401;28;20915;-62
2023/08/20 05:49:08;;;;;;;14.55;9.88;;;;;22.80;96841.00;;;;8372593;28;20200;-62
2023/08/20 05:53:14;;;;;;;11.85;9.30;;;;;23.10;96844.00;;;;8372395;28;20789;-62
2023/08/20 05:57:21;;;;;;;16.02;10.25;;;;;23.20;96842.00;;;;8363080;28;20291;-61
2023/08/20 06:01:27;;;;;;;13.80;10.38;;;;;23.40;96848.00;;;;8371137;28;20202;-62
2023/08/20 06:05:30;;;;;;;10.90;9.07;;;;;23.60;96852.00;;;;8365498;28;20206;-62
2023/08/20 06:09:34;;;;;;;15.27;9.38;;;;;23.90;96852.00;;;;8354998;28;20224;-64
2023/08/20 06:13:40;;;;;;;12.65;9.52;;;;;24.20;96849.00;;;;8371702;28;20910;-63
2023/08/20 06:17:48;;;;;;;10.77;8.43;;;;;24.50;96852.00;;;;8376956;28;20219;-63
2023/08/20 06:21:51;;;;;;;10.02;8.70;;;;;24.80;96851.00;;;;8368020;28;20193;-63
2023/08/20 06:25:55;;;;;;;12.48;8.57;;;;;25.10;96857.00;;;;8381971;28;20665;-63
2023/08/20 06:30:06;;;;;;;11.13;7.88;;;;;25.50;96864.00;;;;8369190;28;20721;-63
2023/08/20 06:34:09;;;;;;;9.65;8.07;;;;;25.70;96863.00;;;;8376682;28;20328;-63
2023/08/20 06:38:13;;;;;;;11.63;8.15;;;;;26.00;96863.00;;;;8375803;28;20582;-63
2023/08/20 06:42:19;;;;;;;10.95;8.10;;;;;26.30;96865.00;;;;8378844;28;20198;-63
2023/08/20 06:46:22;;;;;;;10.75;8.60;;;;;26.60;96871.00;;;;8379528;28;20203;-63
2023/08/20 06:50:27;;;;;;;10.23;8.60;;;;;26.80;96878.00;;;;8357167;28;20208;-63
2023/08/20 06:54:31;;;;;;;13.85;8.82;;;;;27.10;96874.00;;;;8376186;28;20315;-63
2023/08/20 06:58:40;;;;;;;9.73;8.73;;;;;27.40;96876.00;;;;8367537;28;20813;-63
2023/08/20 07:02:43;;;;;;;9.38;7.88;;;;;27.70;96878.00;;;;8378500;28;20306;-63
2023/08/20 07:06:47;;;;;;;10.35;7.47;;;;;27.90;96884.00;;;;8357884;28;20201;-63
2023/08/20 07:10:50;;;;;;;12.95;8.10;;;;;28.20;96881.00;;;;8354343;28;20214;-63
2023/08/20 07:14:56;;;;;;;10.65;8.35;;;;;28.60;96882.00;;;;8366301;28;20242;-63
2023/08/20 07:19:01;;;;;;;9.05;7.68;;;;;29.10;96885.00;;;;8369617;28;20212;-63
2023/08/20 07:23:06;;;;;;;9.57;7.53;;;;;29.70;96892.00;;;;8378458;28;20250;-63
2023/08/20 07:27:15;;;;;;;8.82;7.07;;;;;30.50;96888.00;;;;8380210;28;20238;-63
2023/08/20 07:31:20;;;;;;;8.20;7.05;;;;;31.30;96895.00;;;;8370520;28;20202;-63
2023/08/20 07:35:24;;;;;;;9.82;6.88;;;;;32.10;96895.00;;;;8375343;28;20238;-63
2023/08/20 07:39:28;;;;;;;9.40;7.10;;;;;32.70;96901.00;;;;8371396;28;20206;-63
2023/08/20 07:43:31;;;;;;;8.18;6.53;;;;;33.20;96905.00;;;;8368125;28;20207;-63
2023/08/20 07:47:37;;;;;;;10.00;6.63;;;;;33.40;96893.00;;;;8360064;28;20204;-63
2023/08/20 07:51:40;;;;;;;7.10;6.18;;;;;33.70;96899.00;;;;8374977;28;20203;-63
2023/08/20 07:55:47;;;;;;;6.72;6.10;;;;;34.10;96897.00;;;;8355952;28;20224;-63
2023/08/20 07:59:53;;;;;;;7.43;6.72;;;;;34.20;96899.00;;;;8362144;28;20204;-63
2023/08/20 08:04:06;;;;;;;9.38;6.93;;;;;34.60;96890.00;;;;8374721;28;20232;-64
2023/08/20 08:08:09;;;;;;;7.75;6.18;;;;;34.90;96900.00;;;;8368022;28;20204;-64
2023/08/20 08:12:15;;;;;;;6.80;6.20;;;;;35.10;96905.00;;;;8376964;28;20311;-63
2023/08/20 08:16:19;;;;;;;8.85;6.25;;;;;35.30;96901.00;;;;8380241;28;20236;-63
2023/08/20 08:20:27;;;;;;;6.85;6.25;;;;;35.60;96906.00;;;;8378236;28;20214;-65
2023/08/20 08:24:41;;;;;;;6.70;6.10;;;;;35.90;96920.00;;;;8367837;28;20196;-63
2023/08/20 08:28:45;;;;;;;8.07;6.35;;;;;35.80;96923.00;;;;8368965;28;20196;-63
2023/08/20 08:32:48;;;;;;;9.05;5.93;;;;;36.20;96930.00;;;;8356600;28;20291;-63
2023/08/20 08:36:59;;;;;;;5.68;5.20;;;;;36.60;96925.00;;;;8375491;28;20975;-64
2023/08/20 08:41:03;;;;;;;6.43;5.82;;;;;36.80;96924.00;;;;8370639;28;20204;-63
2023/08/20 08:45:07;;;;;;;6.70;5.97;;;;;36.80;96922.00;;;;8370240;28;20220;-65
2023/08/20 08:49:11;;;;;;;6.72;5.53;;;;;36.80;96927.00;;;;8360478;28;20650;-63
2023/08/20 08:53:18;;;;;;;6.43;5.45;;;;;36.80;96928.00;;;;8366948;28;20196;-64
2023/08/20 08:57:21;;;;;;;5.50;5.10;;;;;37.00;96932.00;;;;8367411;28;20195;-64
2023/08/20 09:01:27;;;;;;;5.43;4.93;;;;;37.40;96930.00;;;;8365063;28;20200;-64
2023/08/20 09:05:30;;;;;;;6.05;4.88;;;;;37.60;96935.00;;;;8369710;28;20207;-63
2023/08/20 09:09:34;;;;;;;6.78;5.47;;;;;37.80;96935.00;;;;8373612;28;20275;-63
2023/08/20 09:13:41;;;;;;;5.65;5.15;;;;;38.10;96930.00;;;;8373590;28;20279;-64
2023/08/20 09:17:47;;;;;;;5.70;5.18;;;;;38.10;96939.00;;;;8362658;28;20729;-63
2023/08/20 09:21:53;;;;;;;6.07;5.50;;;;;38.10;96940.00;;;;8376935;28;20192;-63
2023/08/20 09:25:58;;;;;;;5.82;5.32;;;;;38.30;96935.00;;;;8364220;28;20285;-64
2023/08/20 09:30:04;;;;;;;6.32;4.82;;;;;38.50;96940.00;;;;8366202;28;20300;-63
2023/08/20 09:34:13;;;;;;;5.78;4.55;;;;;38.80;96940.00;;;;8355531;28;20318;-64
2023/08/20 09:38:22;;;;;;;8.82;4.63;;;;;39.10;96947.00;;;;8367411;28;20199;-64
2023/08/20 09:42:28;;;;;;;6.82;4.80;;;;;39.40;96949.00;;;;8363665;28;20283;-64
2023/08/20 09:46:33;;;;;;;5.00;4.43;;;;;39.60;96941.00;;;;8359228;28;20238;-64
2023/08/20 09:50:50;;;;;;;5.30;4.68;;;;;39.80;96950.00;;;;8362814;28;20558;-64
2023/08/20 09:55:02;;;;;;;5.07;4.55;;;;;39.90;96947.00;;;;8371443;28;20676;-65
2023/08/20 09:59:07;;;;;;;5.45;4.95;;;;;39.90;96948.00;;;;8366667;28;20224;-64
2023/08/20 10:03:11;;;;;;;5.35;4.75;;;;;40.00;96953.00;;;;8368833;28;20307;-64
2023/08/20 10:07:16;;;;;;;5.53;5.03;;;;;40.00;96947.00;;;;8369287;28;20291;-64
2023/08/20 10:11:19;;;;;;;7.53;5.00;;;;;39.90;96957.00;;;;8371729;28;20196;-64
2023/08/20 10:15:28;;;;;;;5.40;4.93;;;;;39.50;96943.00;;;;8344579;28;20224;-63
2023/08/20 10:19:34;;;;;;;6.55;4.80;;;;;39.70;96948.00;;;;8366957;28;20231;-63
2023/08/20 10:23:42;;;;;;;4.55;4.22;;;;;40.00;96952.00;;;;8351591;28;20588;-64
2023/08/20 10:27:46;;;;;;;4.60;4.20;;;;;40.40;96944.00;;;;8346680;28;20201;-64
2023/08/20 10:31:56;;;;;;;4.93;4.53;;;;;40.50;96946.00;;;;8363402;28;20215;-65
2023/08/20 10:36:08;;;;;;;6.03;4.93;;;;;40.60;96954.00;;;;8355707;28;20232;-64
2023/08/20 10:40:12;;;;;;;5.10;4.70;;;;;40.90;96955.00;;;;8361539;28;20224;-64
2023/08/20 10:44:17;;;;;;;6.75;4.65;;;;;41.20;96950.00;;;;8367649;28;20279;-65
2023/08/20 10:48:30;;;;;;;5.63;5.13;;;;;41.40;96948.00;;;;8341894;28;20205;-65
2023/08/20 10:52:36;;;;;;;4.57;4.18;;;;;41.50;96953.00;;;;8360969;28;20196;-65
2023/08/20 10:56:43;;;;;;;5.97;4.93;;;;;41.40;96949.00;;;;8352367;28;20665;-65
2023/08/20 11:01:13;;;;;;;5.20;4.70;;;;;41.30;96942.00;;;;8352473;28;20210;-64
2023/08/20 11:05:23;;;;;;;5.07;4.68;;;;;41.40;96945.00;;;;8363609;28;20200;-64
2023/08/20 11:09:31;;;;;;;6.95;4.03;;;;;41.30;96944.00;;;;8357272;28;20964;-65
2023/08/20 11:13:35;;;;;;;5.13;4.63;;;;;41.10;96940.00;;;;8361858;28;20201;-65
2023/08/20 11:17:45;;;;;;;4.65;4.22;;;;;41.20;96939.00;;;;8363985;28;20279;-65
2023/08/20 11:22:00;;;;;;;5.68;4.43;;;;;41.60;96943.00;;;;8365514;28;20311;-65
2023/08/20 11:26:04;;;;;;;5.60;4.68;;;;;41.70;96936.00;;;;8367450;28;20223;-64
2023/08/20 11:30:09;;;;;;;5.78;4.57;;;;;41.80;96936.00;;;;8352586;28;20200;-64
2023/08/20 11:34:13;;;;;;;5.07;4.55;;;;;41.80;96938.00;;;;8352252;28;20246;-65
2023/08/20 11:38:18;;;;;;;5.82;4.57;;;;;41.70;96934.00;;;;8369819;28;20223;-65
2023/08/20 11:42:21;;;;;;;5.93;4.38;;;;;41.90;96932.00;;;;8367566;28;20200;-65
2023/08/20 11:46:27;;;;;;;5.97;4.53;;;;;42.20;96940.00;;;;8368402;28;20204;-65
2023/08/20 11:50:30;;;;;;;6.18;4.75;;;;;42.50;96934.00;;;;8368923;28;20638;-65
2023/08/20 11:54:40;;;;;;;4.97;4.57;;;;;42.40;96935.00;;;;8365042;28;20208;-65
2023/08/20 11:58:50;;;;;;;6.80;4.20;;;;;42.30;96929.00;;;;8356091;28;20643;-66
2023/08/20 12:02:57;;;;;;;7.10;4.45;;;;;41.90;96933.00;;;;8365524;28;20256;-65
2023/08/20 12:07:09;;;;;;;8.00;4.55;;;;;41.00;96934.00;;;;8365980;28;20204;-65
2023/08/20 12:11:14;;;;;;;4.75;4.30;;;;;40.30;96933.00;;;;8365875;28;20283;-65
2023/08/20 12:15:18;;;;;;;5.68;4.47;;;;;39.80;96920.00;;;;8370030;28;20677;-65
2023/08/20 12:19:24;;;;;;;5.45;4.05;;;;;39.40;96917.00;;;;8367806;28;20291;-65
2023/08/20 12:23:30;;;;;;;6.72;4.43;;;;;39.10;96914.00;;;;8369001;28;20723;-65
2023/08/20 12:27:36;;;;;;;9.30;4.55;;;;;38.90;96903.00;;;;8369621;28;20199;-65
2023/08/20 12:31:41;;;;;;;6.25;4.85;;;;;38.80;96906.00;;;;8375672;28;20208;-65
2023/08/20 12:35:45;;;;;;;5.72;4.30;;;;;38.70;96902.00;;;;8371406;28;20774;-65
2023/08/20 12:39:48;;;;;;;8.52;4.50;;;;;38.70;96902.00;;;;8371106;28;20829;-65
2023/08/20 12:43:56;;;;;;;6.18;4.00;;;;;38.60;96899.00;;;;8368085;28;20207;-66
2023/08/20 12:48:01;;;;;;;6.43;4.20;;;;;38.50;96894.00;;;;8364805;28;20290;-65
2023/08/20 12:52:08;;;;;;;7.90;4.60;;;;;38.30;96892.00;;;;8367365;28;20228;-65
2023/08/20 12:56:11;;;;;;;4.80;4.28;;;;;38.10;96884.00;;;;8347323;28;20331;-65
2023/08/20 13:00:17;;;;;;;4.57;4.20;;;;;38.00;96886.00;;;;8356083;28;20192;-65
2023/08/20 13:04:22;;;;;;;7.85;4.70;;;;;38.00;96874.00;;;;8369279;28;20234;-65
2023/08/20 13:08:26;;;;;;;7.13;4.57;;;;;37.80;96874.00;;;;8367434;28;20203;-65
2023/08/20 13:12:31;;;;;;;6.65;4.80;;;;;37.80;96868.00;;;;8364802;28;20193;-65
2023/08/20 13:16:38;;;;;;;5.30;4.18;;;;;37.80;96868.00;;;;8365184;28;20239;-64
2023/08/20 13:20:45;;;;;;;7.40;4.47;;;;;37.90;96870.00;;;;8366906;28;20710;-65
2023/08/20 13:24:48;;;;;;;7.47;4.60;;;;;38.10;96868.00;;;;8368404;28;20196;-65
2023/08/20 13:28:53;;;;;;;4.22;3.80;;;;;38.30;96866.00;;;;8366444;28;20212;-64
2023/08/20 13:32:57;;;;;;;5.53;4.38;;;;;38.40;96863.00;;;;8367206;28;20204;-65
2023/08/20 13:37:02;;;;;;;5.63;4.50;;;;;38.50;96865.00;;;;8363098;28;20589;-65
2023/08/20 13:41:05;;;;;;;7.22;4.38;;;;;38.80;96860.00;;;;8363163;28;20223;-65
2023/08/20 13:45:09;;;;;;;6.35;4.35;;;;;39.40;96861.00;;;;8366180;28;21886;-65
2023/08/20 13:49:16;;;;;;;7.47;4.97;;;;;40.00;96850.00;;;;8346140;28;20199;-64
2023/08/20 13:53:19;;;;;;;4.60;4.20;;;;;40.60;96851.00;;;;8369198;28;20262;-66
2023/08/20 13:57:22;;;;;;;4.20;3.80;;;;;41.00;96851.00;;;;8365866;28;20234;-65
2023/08/20 14:01:26;;;;;;;8.30;3.95;;;;;41.40;96845.00;;;;8371463;28;20210;-65
2023/08/20 14:05:31;;;;;;;5.28;4.00;;;;;41.60;96853.00;;;;8367841;28;20207;-65
2023/08/20 14:09:35;;;;;;;6.63;3.83;;;;;41.90;96846.00;;;;8373600;28;20256;-65
2023/08/20 14:13:39;;;;;;;7.25;4.03;;;;;42.00;96854.00;;;;8375109;28;20983;-66
2023/08/20 14:17:46;;;;;;;5.93;3.70;;;;;42.00;96846.00;;;;8369549;28;20219;-65
2023/08/20 14:21:52;;;;;;;7.78;3.75;;;;;42.20;96846.00;;;;8369434;28;20200;-66
2023/08/20 14:26:01;;;;;;;8.80;4.07;;;;;42.20;96842.00;;;;8370803;28;20204;-66
2023/08/20 14:30:05;;;;;;;5.90;4.03;;;;;42.40;96853.00;;;;8365449;28;20455;-66
2023/08/20 14:34:08;;;;;;;6.95;3.83;;;;;42.30;96850.00;;;;8356730;28;20204;-66
2023/08/20 14:38:16;;;;;;;4.28;3.55;;;;;42.30;96842.00;;;;8371567;28;20234;-66
2023/08/20 14:42:20;;;;;;;6.95;3.60;;;;;42.20;96840.00;;;;8370395;28;20830;-66
2023/08/20 14:46:23;;;;;;;6.65;3.90;;;;;42.40;96839.00;;;;8370591;28;20704;-66
2023/08/20 14:50:27;;;;;;;4.45;3.80;;;;;42.60;96830.00;;;;8382244;28;20196;-66
2023/08/20 14:54:32;;;;;;;3.90;3.53;;;;;42.60;96822.00;;;;8377371;28;20295;-66
2023/08/20 14:58:35;;;;;;;4.10;3.80;;;;;42.40;96825.00;;;;8377441;28;20254;-66
2023/08/20 15:02:39;;;;;;;5.95;3.85;;;;;42.40;96824.00;;;;8366940;28;20292;-66
2023/08/20 15:06:42;;;;;;;4.80;3.60;;;;;42.30;96821.00;;;;8370500;28;20207;-66
2023/08/20 15:10:57;;;;;;;7.32;3.97;;;;;42.00;96819.00;;;;8365233;28;20638;-66
2023/08/20 15:15:01;;;;;;;4.68;3.60;;;;;42.00;96818.00;;;;8369482;28;20315;-66
2023/08/20 15:19:05;;;;;;;7.97;3.70;;;;;41.80;96810.00;;;;8371984;28;20235;-66
2023/08/20 15:23:08;;;;;;;3.85;3.55;;;;;41.60;96814.00;;;;8369978;28;20228;-67
2023/08/20 15:27:14;;;;;;;4.68;4.13;;;;;41.40;96814.00;;;;8376622;28;20642;-66
2023/08/20 15:31:17;;;;;;;3.95;3.70;;;;;41.30;96817.00;;;;8376197;28;20576;-66
2023/08/20 15:35:20;;;;;;;4.15;3.65;;;;;41.20;96821.00;;;;8382403;28;20556;-66
2023/08/20 15:39:23;;;;;;;7.30;4.00;;;;;41.20;96819.00;;;;8381504;28;20319;-65
2023/08/20 15:43:28;;;;;;;7.47;4.85;;;;;41.30;96816.00;;;;8362817;28;20298;-65
2023/08/20 15:47:34;;;;;;;5.82;4.45;;;;;41.40;96821.00;;;;8363867;28;20294;-65
2023/08/20 15:51:37;;;;;;;7.18;4.35;;;;;41.40;96817.00;;;;8367851;28;20199;-65
2023/08/20 15:55:41;;;;;;;7.88;3.88;;;;;41.40;96820.00;;;;8356421;28;20657;-66
2023/08/20 15:59:48;;;;;;;4.53;3.90;;;;;41.20;96811.00;;;;8365253;28;20243;-65
2023/08/20 16:03:56;;;;;;;4.05;3.65;;;;;41.40;96818.00;;;;8366852;28;20299;-66
2023/08/20 16:08:02;;;;;;;7.13;4.22;;;;;41.40;96820.00;;;;8365544;28;20201;-66
2023/08/20 16:12:06;;;;;;;4.65;3.85;;;;;41.40;96816.00;;;;8366851;28;20204;-65
2023/08/20 16:16:15;;;;;;;3.97;3.63;;;;;41.60;96818.00;;;;8367110;28;21486;-65
2023/08/20 16:20:19;;;;;;;3.92;3.60;;;;;41.60;96813.00;;;;8365638;28;20235;-65
2023/08/20 16:24:23;;;;;;;4.40;3.80;;;;;41.70;96818.00;;;;8369168;28;20653;-66
2023/08/20 16:28:27;;;;;;;6.75;4.25;;;;;42.00;96815.00;;;;8371000;28;20203;-65
2023/08/20 16:32:32;;;;;;;5.28;3.80;;;;;42.10;96809.00;;;;8366371;28;20207;-66
2023/08/20 16:36:36;;;;;;;7.68;3.95;;;;;42.30;96815.00;;;;8380126;28;20556;-64
2023/08/20 16:40:39;;;;;;;7.93;5.07;;;;;42.30;96818.00;;;;8374571;28;20196;-64
2023/08/20 16:44:42;;;;;;;9.82;4.30;;;;;42.40;96820.00;;;;8373960;28;20204;-64
2023/08/20 16:48:52;;;;;;;13.18;5.30;;;;;42.20;96816.00;;;;8353018;28;20203;-64
2023/08/20 16:52:57;;;;;;;6.57;4.28;;;;;42.10;96819.00;;;;8375744;28;20199;-65
2023/08/20 16:57:04;;;;;;;6.10;4.40;;;;;41.90;96822.00;;;;8364321;28;20281;-65
2023/08/20 17:01:07;;;;;;;5.18;3.95;;;;;41.80;96818.00;;;;8367767;28;20592;-64
2023/08/20 17:05:12;;;;;;;4.13;3.83;;;;;41.60;96825.00;;;;8369801;28;20693;-64
2023/08/20 17:09:15;;;;;;;4.50;4.00;;;;;41.50;96824.00;;;;8370853;28;20206;-64
2023/08/20 17:13:18;;;;;;;5.95;4.00;;;;;41.20;96821.00;;;;8365939;28;20284;-65
2023/08/20 17:17:29;;;;;;;6.45;4.93;;;;;40.90;96816.00;;;;8368537;28;20227;-65
2023/08/20 17:21:34;;;;;;;16.45;6.72;;;;;40.70;96826.00;;;;8371674;28;20220;-64
2023/08/20 17:25:37;;;;;;;4.95;4.38;;;;;39.90;96831.00;;;;8369052;28;20669;-64
2023/08/20 17:29:42;;;;;;;6.85;6.10;;;;;38.80;96828.00;;;;8375459;28;20261;-64
2023/08/20 17:33:45;;;;;;;6.60;5.68;;;;;37.80;96821.00;;;;8367147;28;20212;-64
2023/08/20 17:37:52;;;;;;;7.53;4.60;;;;;36.90;96823.00;;;;8376235;28;20215;-64
2023/08/20 17:41:57;;;;;;;6.03;4.97;;;;;36.10;96820.00;;;;8380627;28;20200;-64
2023/08/20 17:46:03;;;;;;;7.10;4.43;;;;;35.40;96832.00;;;;8370540;28;20199;-64
2023/08/20 17:50:07;;;;;;;5.18;4.68;;;;;34.80;96821.00;;;;8373755;28;20283;-64
2023/08/20 17:54:14;;;;;;;6.57;4.55;;;;;34.30;96824.00;;;;8374857;28;20757;-64
2023/08/20 17:58:22;;;;;;;7.43;4.45;;;;;33.90;96825.00;;;;8374529;28;20696;-63
2023/08/20 18:02:25;;;;;;;8.55;4.72;;;;;33.50;96829.00;;;;8375933;28;20260;-63
2023/08/20 18:06:30;;;;;;;7.97;5.07;;;;;33.10;96834.00;;;;8371183;28;20203;-64
2023/08/20 18:10:35;;;;;;;14.02;4.57;;;;;32.70;96836.00;;;;8363972;28;20284;-64
2023/08/20 18:14:38;;;;;;;7.53;5.00;;;;;32.40;96835.00;;;;8371596;28;20266;-64
2023/08/20 18:18:41;;;;;;;14.73;5.10;;;;;32.10;96836.00;;;;8364844;28;20279;-65
2023/08/20 18:22:48;;;;;;;11.38;5.10;;;;;31.80;96841.00;;;;8364051;28;20719;-64
2023/08/20 18:26:55;;;;;;;5.93;4.60;;;;;31.50;96834.00;;;;8378828;28;20227;-63
2023/08/20 18:31:02;;;;;;;7.35;5.28;;;;;31.30;96837.00;;;;8375853;28;20188;-64
2023/08/20 18:35:08;;;;;;;10.15;5.45;;;;;31.00;96839.00;;;;8378239;28;20214;-64
2023/08/20 18:39:19;;;;;;;5.57;5.03;;;;;30.80;96850.00;;;;8375306;28;20834;-64
2023/08/20 18:43:26;;;;;;;10.68;4.95;;;;;30.50;96852.00;;;;8371915;28;20235;-64
2023/08/20 18:47:30;;;;;;;9.48;5.22;;;;;30.20;96863.00;;;;8380197;28;20206;-64
2023/08/20 18:51:33;;;;;;;18.75;6.57;;;;;29.70;96864.00;;;;8383200;28;20217;-64
2023/08/20 18:55:40;;;;;;;8.27;5.63;;;;;29.20;96862.00;;;;8378295;28;20196;-65
2023/08/20 18:59:47;;;;;;;10.13;5.60;;;;;28.80;96866.00;;;;8376986;28;20224;-64
2023/08/20 19:03:55;;;;;;;9.07;5.30;;;;;28.40;96865.00;;;;8376312;28;20223;-64
2023/08/20 19:07:58;;;;;;;8.43;5.72;;;;;28.00;96875.00;;;;8355822;28;20207;-64
2023/08/20 19:12:01;;;;;;;12.88;5.80;;;;;27.70;96875.00;;;;8374137;28;20283;-64
2023/08/20 19:16:07;;;;;;;9.57;5.80;;;;;27.40;96876.00;;;;8373594;28;20204;-64
2023/08/20 19:20:11;;;;;;;9.60;5.35;;;;;27.20;96877.00;;;;8379084;28;20224;-64
2023/08/20 19:24:16;;;;;;;10.98;5.47;;;;;27.00;96879.00;;;;8371597;28;20233;-65
2023/08/20 19:28:19;;;;;;;11.60;5.90;;;;;26.70;96883.00;;;;8375116;28;21040;-65
2023/08/20 19:32:26;;;;;;;10.40;5.90;;;;;26.60;96884.00;;;;8374407;28;20236;-66
2023/08/20 19:36:30;;;;;;;11.18;5.97;;;;;26.40;96881.00;;;;8378374;28;20204;-65
2023/08/20 19:40:37;;;;;;;7.85;5.88;;;;;26.20;96884.00;;;;8377700;28;20226;-66
2023/08/20 19:44:40;;;;;;;8.05;6.55;;;;;26.10;96886.00;;;;8372871;28;20316;-65
2023/08/20 19:48:45;;;;;;;8.88;5.80;;;;;25.90;96891.00;;;;8377304;28;20497;-65
2023/08/20 19:52:52;;;;;;;8.57;6.78;;;;;25.70;96890.00;;;;8362534;28;20207;-66
2023/08/20 19:56:55;;;;;;;11.18;6.57;;;;;25.60;96891.00;;;;8378442;28;20204;-66
2023/08/20 20:01:00;;;;;;;10.05;6.43;;;;;25.40;96897.00;;;;8374193;28;20227;-66
2023/08/20 20:05:08;;;;;;;7.15;5.68;;;;;25.20;96887.00;;;;8371246;28;20228;-66
2023/08/20 20:09:13;;;;;;;12.65;6.75;;;;;25.10;96891.00;;;;8370681;28;20220;-66
2023/08/20 20:13:17;;;;;;;9.45;6.50;;;;;25.00;96895.00;;;;8372890;28;20303;-66
2023/08/20 20:17:20;;;;;;;10.38;6.78;;;;;24.80;96897.00;;;;8375178;28;20204;-77